createdAt,value
2018-06-27T00:02:27.531Z,74.60
2018-06-27T00:04:56.234Z,75.46
2018-06-27T00:07:24.940Z,74.93
2018-06-27T00:09:53.714Z,76.30
2018-06-27T00:12:22.619Z,77.14
2018-06-27T00:14:51.350Z,78.79
2018-06-27T00:17:20.527Z,80.00
2018-06-27T00:19:49.243Z,79.82
2018-06-27T00:22:18.000Z,80.86
2018-06-27T00:24:46.734Z,79.98
2018-06-27T00:27:15.514Z,80.10
2018-06-27T00:29:44.278Z,79.42
2018-06-27T00:32:12.978Z,79.81
2018-06-27T00:34:41.724Z,78.97
2018-06-27T00:37:10.486Z,79.89
2018-06-27T00:39:39.193Z,80.04
2018-06-27T00:42:07.955Z,80.15
2018-06-27T00:44:36.655Z,80.45
2018-06-27T00:47:05.871Z,80.85
2018-06-27T00:49:34.618Z,81.09
2018-06-27T00:52:03.766Z,80.58
2018-06-27T00:54:32.470Z,80.67
2018-06-27T00:57:01.190Z,80.90
2018-06-27T00:59:29.900Z,81.34
2018-06-27T01:01:59.122Z,80.57
2018-06-27T01:04:28.621Z,79.79
2018-06-27T01:06:57.342Z,79.79
2018-06-27T01:09:26.144Z,79.23
2018-06-27T01:11:54.865Z,79.56
2018-06-27T01:14:23.578Z,79.69
2018-06-27T01:16:52.682Z,80.03
2018-06-27T01:19:21.394Z,80.00
2018-06-27T01:21:50.278Z,79.70
2018-06-27T01:24:19.246Z,79.25
2018-06-27T01:26:48.534Z,79.89
2018-06-27T01:29:17.282Z,79.71
2018-06-27T01:31:46.039Z,79.50
2018-06-27T01:34:14.757Z,78.96
2018-06-27T01:36:43.492Z,78.80
2018-06-27T01:39:12.299Z,79.06
2018-06-27T01:41:41.044Z,79.62
2018-06-27T01:44:09.756Z,79.61
2018-06-27T01:46:38.808Z,80.29
2018-06-27T01:49:07.546Z,80.28
2018-06-27T01:51:36.251Z,80.17
2018-06-27T01:54:04.981Z,80.55
2018-06-27T01:56:33.772Z,80.40
2018-06-27T01:59:02.579Z,80.43
2018-06-27T02:01:31.332Z,80.76
2018-06-27T02:04:00.069Z,80.80
2018-06-27T02:06:28.796Z,80.52
2018-06-27T02:08:57.511Z,80.52
2018-06-27T02:11:26.254Z,80.58
2018-06-27T02:13:54.938Z,81.07
2018-06-27T02:16:23.679Z,80.70
2018-06-27T02:18:52.383Z,81.20
2018-06-27T02:21:21.151Z,81.46
2018-06-27T02:23:49.887Z,81.06
2018-06-27T02:26:18.626Z,81.52
2018-06-27T02:28:47.397Z,80.80
2018-06-27T02:31:16.148Z,81.61
2018-06-27T02:33:44.891Z,81.22
2018-06-27T02:36:13.626Z,81.32
2018-06-27T02:38:42.352Z,82.20
2018-06-27T02:41:11.506Z,82.12
2018-06-27T02:43:40.206Z,81.72
2018-06-27T02:46:09.766Z,81.65
2018-06-27T02:48:38.478Z,82.13
2018-06-27T02:51:07.186Z,82.19
2018-06-27T02:53:37.793Z,81.84
2018-06-27T02:56:08.554Z,81.59
2018-06-27T02:58:37.319Z,81.62
2018-06-27T03:01:06.139Z,81.70
2018-06-27T03:03:34.902Z,81.91
2018-06-27T03:06:03.613Z,81.91
2018-06-27T03:08:32.370Z,82.22
2018-06-27T03:11:01.161Z,82.19
2018-06-27T03:13:29.891Z,81.62
2018-06-27T03:15:59.160Z,81.30
2018-06-27T03:18:28.102Z,81.46
2018-06-27T03:20:57.120Z,81.43
2018-06-27T03:23:25.839Z,81.32
2018-06-27T03:25:54.584Z,81.48
2018-06-27T03:28:23.331Z,80.99
2018-06-27T03:30:52.090Z,80.85
2018-06-27T03:33:20.813Z,81.26
2018-06-27T03:35:49.499Z,81.63
2018-06-27T03:38:18.273Z,82.90
2018-06-27T03:40:47.027Z,83.29
2018-06-27T03:43:15.790Z,82.75
2018-06-27T03:45:44.527Z,82.05
2018-06-27T03:48:13.263Z,82.46
2018-06-27T03:50:42.326Z,81.60
2018-06-27T03:53:11.016Z,81.74
2018-06-27T03:55:39.751Z,81.30
2018-06-27T03:58:08.426Z,80.90
2018-06-27T04:00:37.126Z,81.49
2018-06-27T04:03:05.919Z,81.14
2018-06-27T04:05:34.622Z,81.36
2018-06-27T04:08:03.739Z,80.48
2018-06-27T04:10:32.451Z,80.47
2018-06-27T04:13:01.401Z,80.46
2018-06-27T04:15:30.150Z,79.40
2018-06-27T04:17:58.921Z,80.42
2018-06-27T04:20:27.913Z,80.38
2018-06-27T04:22:56.679Z,80.06
2018-06-27T04:25:25.470Z,80.42
2018-06-27T04:27:54.377Z,80.31
2018-06-27T04:30:23.130Z,79.92
2018-06-27T04:32:51.924Z,80.54
2018-06-27T04:35:20.704Z,80.38
2018-06-27T04:37:49.408Z,80.43
2018-06-27T04:40:18.345Z,79.77
2018-06-27T04:42:47.053Z,79.11
2018-06-27T04:45:15.804Z,78.64
2018-06-27T04:47:44.531Z,79.99
2018-06-27T04:50:13.312Z,78.60
2018-06-27T04:52:42.070Z,78.48
2018-06-27T04:55:11.309Z,78.94
2018-06-27T04:57:40.121Z,77.52
2018-06-27T05:00:09.251Z,77.86
2018-06-27T05:02:39.688Z,77.89
2018-06-27T05:05:08.407Z,78.52
2018-06-27T05:07:37.195Z,78.70
2018-06-27T05:10:05.929Z,78.11
2018-06-27T05:12:34.678Z,78.08
2018-06-27T05:15:03.462Z,76.39
2018-06-27T05:17:32.158Z,76.52
2018-06-27T05:20:00.878Z,77.45
2018-06-27T05:22:29.624Z,78.19
2018-06-27T05:24:58.761Z,77.11
2018-06-27T05:27:27.546Z,77.03
2018-06-27T05:29:56.407Z,76.71
2018-06-27T05:32:25.174Z,76.70
2018-06-27T05:34:54.074Z,76.89
2018-06-27T05:37:22.792Z,77.17
2018-06-27T05:39:51.565Z,77.29
2018-06-27T05:42:20.362Z,77.40
2018-06-27T05:44:49.078Z,77.36
2018-06-27T05:47:17.959Z,77.92
2018-06-27T05:49:46.687Z,77.94
2018-06-27T05:52:15.410Z,78.63
2018-06-27T05:54:44.117Z,79.12
2018-06-27T05:57:12.849Z,78.94
2018-06-27T05:59:41.592Z,78.98
2018-06-27T06:02:10.310Z,78.22
2018-06-27T06:04:39.062Z,78.38
2018-06-27T06:07:07.824Z,77.22
2018-06-27T06:09:36.536Z,77.90
2018-06-27T06:12:05.316Z,78.26
2018-06-27T06:14:34.076Z,78.17
2018-06-27T06:17:03.042Z,78.44
2018-06-27T06:19:31.738Z,77.03
2018-06-27T06:22:00.499Z,77.59
2018-06-27T06:24:29.259Z,77.83
2018-06-27T06:26:57.947Z,78.21
2018-06-27T06:29:26.667Z,77.60
2018-06-27T06:31:55.387Z,76.94
2018-06-27T06:34:24.097Z,77.26
2018-06-27T06:36:52.849Z,76.92
2018-06-27T06:39:21.590Z,76.20
2018-06-27T06:41:50.307Z,77.06
2018-06-27T06:44:19.076Z,77.01
2018-06-27T06:46:47.791Z,76.44
2018-06-27T06:49:16.508Z,76.59
2018-06-27T06:51:45.228Z,76.66
2018-06-27T06:54:13.962Z,75.86
2018-06-27T06:56:42.803Z,76.39
2018-06-27T06:59:11.958Z,75.65
2018-06-27T07:01:40.711Z,75.50
2018-06-27T07:04:09.502Z,75.25
2018-06-27T07:06:38.251Z,75.02
2018-06-27T07:09:09.845Z,75.25
2018-06-27T07:11:39.120Z,75.07
2018-06-27T07:14:08.370Z,75.51
2018-06-27T07:16:37.178Z,74.72
2018-06-27T07:19:06.238Z,75.23
2018-06-27T07:21:34.995Z,74.72
2018-06-27T07:24:04.292Z,74.44
2018-06-27T07:26:33.068Z,74.73
2018-06-27T07:29:01.783Z,74.69
2018-06-27T07:31:30.565Z,73.83
2018-06-27T07:33:59.691Z,74.58
2018-06-27T07:36:28.355Z,73.66
2018-06-27T07:38:57.248Z,73.81
2018-06-27T07:41:26.088Z,74.41
2018-06-27T07:43:54.998Z,73.45
2018-06-27T07:46:23.751Z,72.37
2018-06-27T07:48:52.860Z,71.53
2018-06-27T07:51:21.599Z,72.81
2018-06-27T07:53:50.363Z,72.46
2018-06-27T07:56:19.087Z,73.27
2018-06-27T07:58:47.826Z,72.69
2018-06-27T08:01:16.932Z,72.94
2018-06-27T08:03:45.966Z,72.52
2018-06-27T08:06:14.710Z,73.29
2018-06-27T08:08:43.527Z,72.35
2018-06-27T08:11:12.263Z,73.41
2018-06-27T08:13:40.999Z,73.08
2018-06-27T08:16:09.794Z,73.46
2018-06-27T08:18:40.561Z,73.93
2018-06-27T08:21:09.835Z,74.32
2018-06-27T08:23:39.315Z,72.89
2018-06-27T08:26:08.123Z,72.11
2018-06-27T08:28:37.083Z,73.56
2018-06-27T08:31:05.846Z,73.94
2018-06-27T08:33:34.532Z,74.32
2018-06-27T08:36:03.272Z,73.76
2018-06-27T08:38:32.014Z,73.33
2018-06-27T08:41:00.760Z,72.80
2018-06-27T08:43:29.735Z,72.53
2018-06-27T08:45:58.447Z,71.70
2018-06-27T08:48:27.205Z,72.28
2018-06-27T08:50:55.937Z,71.59
2018-06-27T08:53:24.749Z,71.77
2018-06-27T08:55:53.592Z,71.79
2018-06-27T08:58:22.363Z,70.96
2018-06-27T09:00:51.146Z,71.47
2018-06-27T09:03:20.794Z,71.86
2018-06-27T09:05:49.515Z,72.39
2018-06-27T09:08:18.287Z,70.75
2018-06-27T09:10:47.015Z,68.04
2018-06-27T09:13:15.706Z,67.68
2018-06-27T09:15:44.764Z,68.12
2018-06-27T09:18:13.504Z,66.57
2018-06-27T09:20:42.248Z,67.04
2018-06-27T09:23:10.971Z,67.77
2018-06-27T09:25:40.135Z,67.50
2018-06-27T09:28:08.891Z,65.10
2018-06-27T09:30:38.068Z,66.55
2018-06-27T09:33:06.863Z,63.84
2018-06-27T09:35:35.642Z,64.32
2018-06-27T09:38:04.426Z,64.80
2018-06-27T09:40:33.156Z,66.57
2018-06-27T09:43:01.936Z,65.41
2018-06-27T09:45:30.668Z,68.33
2018-06-27T09:47:59.374Z,67.37
2018-06-27T09:50:28.188Z,66.06
2018-06-27T09:52:57.096Z,67.40
2018-06-27T09:55:25.828Z,66.34
2018-06-27T09:57:54.582Z,66.41
2018-06-27T10:00:28.485Z,65.11
2018-06-27T10:02:57.201Z,66.89
2018-06-27T10:05:25.879Z,65.68
2018-06-27T10:07:54.844Z,67.57
2018-06-27T10:10:23.550Z,67.28
2018-06-27T10:12:52.380Z,69.30
2018-06-27T10:15:21.099Z,69.98
2018-06-27T10:17:49.823Z,70.41
2018-06-27T10:20:18.551Z,70.60
2018-06-27T10:22:47.374Z,70.93
2018-06-27T10:25:16.109Z,70.76
2018-06-27T10:27:44.811Z,70.75
2018-06-27T10:30:13.608Z,70.80
2018-06-27T10:32:42.437Z,71.67
2018-06-27T10:35:11.188Z,72.39
2018-06-27T10:37:40.070Z,71.92
2018-06-27T10:40:08.820Z,73.13
2018-06-27T10:42:37.606Z,73.14
2018-06-27T10:45:06.473Z,73.09
2018-06-27T10:47:35.281Z,73.88
2018-06-27T10:50:04.092Z,74.20
2018-06-27T10:52:32.876Z,74.62
2018-06-27T10:55:05.829Z,74.24
2018-06-27T10:57:34.545Z,74.12
2018-06-27T11:00:04.724Z,74.20
2018-06-27T11:02:33.526Z,73.84
2018-06-27T11:05:02.298Z,73.71
2018-06-27T11:07:31.026Z,74.16
2018-06-27T11:09:59.814Z,74.34
2018-06-27T11:12:28.591Z,74.67
2018-06-27T11:14:57.368Z,74.74
2018-06-27T11:17:26.191Z,74.08
2018-06-27T11:19:55.007Z,74.72
2018-06-27T11:22:23.836Z,74.56
2018-06-27T11:24:52.611Z,75.43
2018-06-27T11:27:21.356Z,75.77
2018-06-27T11:29:50.134Z,77.01
2018-06-27T11:32:18.896Z,77.13
2018-06-27T11:34:48.020Z,76.40
2018-06-27T11:37:17.140Z,75.71
2018-06-27T11:39:46.150Z,75.51
2018-06-27T11:42:14.857Z,76.28
2018-06-27T11:44:43.593Z,75.76
2018-06-27T11:47:12.352Z,76.73
2018-06-27T11:49:41.482Z,76.23
2018-06-27T11:52:10.248Z,74.93
2018-06-27T11:54:39.149Z,75.39
2018-06-27T11:57:08.022Z,74.80
2018-06-27T11:59:36.798Z,75.51
2018-06-27T12:02:05.904Z,75.37
2018-06-27T12:04:34.647Z,75.23
2018-06-27T12:07:03.443Z,75.31
2018-06-27T12:09:32.190Z,75.75
2018-06-27T12:12:00.880Z,75.21
2018-06-27T12:14:29.640Z,75.90
2018-06-27T12:16:58.433Z,76.54
2018-06-27T12:19:27.365Z,74.71
2018-06-27T12:21:56.472Z,74.53
2018-06-27T12:24:25.260Z,74.78
2018-06-27T12:26:54.094Z,75.29
2018-06-27T12:29:22.854Z,75.19
2018-06-27T12:31:51.907Z,75.93
2018-06-27T12:34:20.662Z,76.32
2018-06-27T12:36:49.451Z,76.21
2018-06-27T12:39:18.271Z,75.79
2018-06-27T12:41:46.987Z,75.33
2018-06-27T12:44:16.029Z,75.45
2018-06-27T12:46:44.982Z,76.35
2018-06-27T12:49:13.757Z,76.99
2018-06-27T12:51:43.055Z,76.57
2018-06-27T12:54:11.866Z,76.98
2018-06-27T12:56:40.984Z,77.17
2018-06-27T12:59:10.146Z,76.70
2018-06-27T13:01:38.941Z,76.17
2018-06-27T13:04:07.755Z,77.31
2018-06-27T13:06:36.873Z,77.81
2018-06-27T13:09:09.442Z,78.16
2018-06-27T13:11:39.495Z,77.95
2018-06-27T13:14:08.807Z,78.56
2018-06-27T13:16:38.032Z,78.63
2018-06-27T13:19:07.350Z,78.58
2018-06-27T13:21:36.114Z,78.66
2018-06-27T13:24:04.937Z,78.76
2018-06-27T13:26:33.720Z,78.97
2018-06-27T13:29:02.865Z,78.19
2018-06-27T13:31:31.667Z,77.91
2018-06-27T13:34:00.366Z,78.03
2018-06-27T13:36:29.161Z,78.20
2018-06-27T13:38:58.289Z,77.90
2018-06-27T13:41:27.035Z,77.96
2018-06-27T13:43:55.899Z,77.50
2018-06-27T13:46:24.672Z,77.15
2018-06-27T13:48:53.463Z,76.83
2018-06-27T13:51:22.268Z,76.86
2018-06-27T13:53:51.047Z,77.19
2018-06-27T13:56:19.742Z,76.47
2018-06-27T13:58:48.554Z,77.53
2018-06-27T14:01:17.315Z,77.18
2018-06-27T14:03:46.897Z,77.64
2018-06-27T14:06:15.580Z,77.68
2018-06-27T14:08:44.324Z,77.51
2018-06-27T14:11:13.062Z,78.30
2018-06-27T14:13:41.778Z,79.03
2018-06-27T14:16:10.569Z,79.24
2018-06-27T14:18:39.305Z,79.06
2018-06-27T14:21:08.210Z,78.52
2018-06-27T14:23:37.270Z,78.96
2018-06-27T14:26:06.286Z,78.87
2018-06-27T14:28:35.093Z,78.49
2018-06-27T14:31:04.227Z,78.93
2018-06-27T14:33:32.936Z,77.94
2018-06-27T14:36:02.462Z,78.21
2018-06-27T14:38:31.309Z,78.17
2018-06-27T14:41:00.182Z,78.21
2018-06-27T14:43:28.943Z,77.94
2018-06-27T14:45:58.080Z,78.20
2018-06-27T14:48:27.203Z,78.16
2018-06-27T14:50:56.026Z,77.50
2018-06-27T14:53:24.828Z,77.59
2018-06-27T14:55:53.776Z,77.33
2018-06-27T14:58:22.534Z,77.27
2018-06-27T15:00:51.260Z,77.82
2018-06-27T15:03:20.116Z,77.71
2018-06-27T15:05:49.439Z,77.63
2018-06-27T15:08:18.183Z,77.43
2018-06-27T15:10:46.983Z,77.38
2018-06-27T15:13:15.919Z,77.86
2018-06-27T15:15:44.938Z,77.76
2018-06-27T15:18:13.742Z,76.97
2018-06-27T15:20:42.485Z,77.78
2018-06-27T15:23:11.410Z,77.68
2018-06-27T15:25:40.114Z,77.98
2018-06-27T15:28:08.874Z,78.13
2018-06-27T15:33:05.275Z,78.68
2018-06-27T15:35:34.147Z,79.51
2018-06-27T15:38:02.894Z,78.99
2018-06-27T15:40:31.640Z,79.38
2018-06-27T15:43:00.419Z,79.05
2018-06-27T15:45:29.516Z,80.28
2018-06-27T15:47:58.284Z,79.98
2018-06-27T15:50:27.001Z,80.41
2018-06-27T15:52:55.706Z,79.00
2018-06-27T15:55:24.470Z,79.58
2018-06-27T15:57:53.171Z,78.80
2018-06-27T16:00:22.036Z,79.04
2018-06-27T16:02:50.811Z,79.16
2018-06-27T16:05:19.710Z,79.21
2018-06-27T16:07:48.481Z,79.07
2018-06-27T16:10:17.317Z,78.60
2018-06-27T16:12:46.098Z,79.21
2018-06-27T16:15:14.937Z,79.06
2018-06-27T16:17:43.769Z,78.85
2018-06-27T16:20:12.534Z,78.03
2018-06-27T16:22:41.289Z,78.14
2018-06-27T16:25:10.091Z,78.86
2018-06-27T16:27:38.938Z,78.98
2018-06-27T16:30:08.362Z,79.10
2018-06-27T16:32:37.069Z,79.10
2018-06-27T16:35:06.291Z,78.22
2018-06-27T16:37:35.455Z,78.53
2018-06-27T16:40:04.361Z,79.22
2018-06-27T16:42:33.056Z,79.36
2018-06-27T16:45:01.801Z,78.53
2018-06-27T16:47:30.595Z,78.99
2018-06-27T16:49:59.387Z,78.60
2018-06-27T16:52:28.443Z,78.97
2018-06-27T16:54:57.203Z,79.53
2018-06-27T16:57:26.035Z,79.20
2018-06-27T16:59:54.788Z,79.39
2018-06-27T17:02:23.558Z,79.27
2018-06-27T17:04:52.343Z,80.46
2018-06-27T17:07:21.448Z,80.46
2018-06-27T17:09:50.375Z,79.25
2018-06-27T17:12:19.148Z,79.50
2018-06-27T17:14:48.165Z,79.72
2018-06-27T17:17:16.969Z,80.02
2018-06-27T17:19:45.783Z,79.82
2018-06-27T17:22:14.615Z,79.20
2018-06-27T17:24:43.399Z,79.36
2018-06-27T17:27:12.223Z,79.86
2018-06-27T17:29:40.981Z,80.47
2018-06-27T17:32:09.774Z,80.51
2018-06-27T17:34:39.215Z,80.15
2018-06-27T17:37:08.172Z,79.55
2018-06-27T17:39:36.898Z,79.05
2018-06-27T17:42:06.946Z,80.06
2018-06-27T17:44:35.689Z,80.03
2018-06-27T17:47:04.538Z,80.08
2018-06-27T17:49:33.362Z,80.37
2018-06-27T17:52:02.125Z,80.43
2018-06-27T17:54:31.297Z,80.71
2018-06-27T17:57:01.202Z,80.53
2018-06-27T17:59:29.862Z,80.56
2018-06-27T18:01:58.607Z,80.06
2018-06-27T18:04:27.461Z,80.23
2018-06-27T18:06:56.238Z,80.99
2018-06-27T18:09:25.029Z,80.25
2018-06-27T18:11:53.924Z,80.41
2018-06-27T18:14:22.910Z,80.86
2018-06-27T18:16:52.069Z,81.31
2018-06-27T18:19:21.070Z,80.65
2018-06-27T18:21:49.940Z,80.17
2018-06-27T18:24:18.754Z,79.16
2018-06-27T18:26:47.608Z,78.60
2018-06-27T18:29:16.282Z,78.93
2018-06-27T18:31:45.058Z,79.08
2018-06-27T18:34:13.823Z,79.51
2018-06-27T18:36:42.594Z,79.42
2018-06-27T18:39:11.744Z,79.92
2018-06-27T18:41:41.045Z,79.44
2018-06-27T18:44:09.977Z,79.21
2018-06-27T18:46:38.722Z,80.08
2018-06-27T18:49:07.667Z,80.29
2018-06-27T18:51:37.511Z,80.44
2018-06-27T18:54:06.357Z,79.68
2018-06-27T18:56:35.088Z,79.82
2018-06-27T18:59:04.402Z,79.82
2018-06-27T19:01:33.393Z,80.10
2018-06-27T19:04:02.262Z,80.22
2018-06-27T19:06:31.083Z,79.83
2018-06-27T19:08:59.919Z,80.63
2018-06-27T19:11:28.794Z,79.94
2018-06-27T19:13:57.557Z,80.49
2018-06-27T19:16:26.346Z,80.73
2018-06-27T19:18:55.445Z,80.60
2018-06-27T19:21:24.321Z,80.58
2018-06-27T19:23:53.064Z,79.88
2018-06-27T19:26:21.862Z,79.14
2018-06-27T19:28:50.682Z,79.31
2018-06-27T19:31:19.486Z,78.50
2018-06-27T19:33:48.314Z,78.00
2018-06-27T19:38:45.084Z,78.49
2018-06-27T19:41:14.035Z,77.83
2018-06-27T19:43:42.959Z,77.38
2018-06-27T19:46:11.743Z,76.55
2018-06-27T19:48:40.930Z,76.66
2018-06-27T19:51:09.758Z,78.54
2018-06-27T19:53:38.514Z,78.61
2018-06-27T19:56:08.851Z,77.92
2018-06-27T19:58:37.577Z,77.78
2018-06-27T20:01:06.767Z,77.62
2018-06-27T20:03:35.534Z,79.05
2018-06-27T20:06:04.827Z,80.37
2018-06-27T20:08:33.613Z,81.29
2018-06-27T20:11:02.395Z,81.43
2018-06-27T20:13:31.197Z,80.89
2018-06-27T20:15:59.937Z,82.04
2018-06-27T20:18:29.127Z,81.83
2018-06-27T20:20:57.916Z,82.10
2018-06-27T20:23:26.726Z,81.79
2018-06-27T20:25:55.456Z,81.96
2018-06-27T20:28:24.558Z,82.62
2018-06-27T20:30:55.668Z,82.42
2018-06-27T20:33:24.424Z,82.17
2018-06-27T20:35:53.162Z,83.43
2018-06-27T20:38:21.892Z,83.20
2018-06-27T20:40:50.808Z,83.84
2018-06-27T20:43:19.564Z,83.06
2018-06-27T20:45:48.630Z,83.19
2018-06-27T20:48:17.400Z,82.51
2018-06-27T20:50:46.221Z,82.50
2018-06-27T20:53:15.022Z,82.14
2018-06-27T20:55:43.841Z,82.94
2018-06-27T20:58:12.581Z,83.26
2018-06-27T21:00:41.330Z,81.74
2018-06-27T21:03:10.047Z,82.55
2018-06-27T21:05:38.767Z,82.89
2018-06-27T21:08:07.529Z,83.09
2018-06-27T21:10:36.345Z,82.23
2018-06-27T21:13:05.199Z,82.93
2018-06-27T21:15:33.954Z,82.45
2018-06-27T21:18:02.699Z,81.47
2018-06-27T21:20:31.421Z,82.15
2018-06-27T21:23:00.226Z,80.82
2018-06-27T21:25:28.961Z,80.87
2018-06-27T21:27:57.753Z,80.80
2018-06-27T21:30:26.494Z,80.45
2018-06-27T21:32:55.220Z,81.05
2018-06-27T21:35:24.054Z,82.02
2018-06-27T21:37:52.952Z,80.62
2018-06-27T21:40:21.700Z,80.05
2018-06-27T21:42:50.415Z,78.85
2018-06-27T21:45:19.214Z,78.15
2018-06-27T21:47:48.046Z,77.87
2018-06-27T21:50:16.775Z,77.07
2018-06-27T21:52:46.136Z,77.61
2018-06-27T21:55:15.227Z,77.28
2018-06-27T21:57:43.999Z,77.60
2018-06-27T22:00:12.907Z,77.34
2018-06-27T22:02:41.726Z,78.12
2018-06-27T22:05:10.703Z,77.95
2018-06-27T22:07:39.478Z,77.41
2018-06-27T22:10:08.444Z,78.09
2018-06-27T22:12:37.266Z,77.11
2018-06-27T22:15:06.459Z,77.46
2018-06-27T22:17:35.339Z,77.39
2018-06-27T22:20:04.205Z,76.69
2018-06-27T22:22:32.990Z,77.77
2018-06-27T22:25:01.932Z,78.01
2018-06-27T22:27:30.817Z,78.02
2018-06-27T22:29:59.617Z,78.82
2018-06-27T22:32:28.624Z,79.12
2018-06-27T22:34:57.398Z,79.06
2018-06-27T22:37:26.214Z,79.44
2018-06-27T22:39:55.036Z,78.55
2018-06-27T22:42:23.961Z,79.33
2018-06-27T22:44:53.373Z,78.36
2018-06-27T22:47:22.218Z,79.28
2018-06-27T22:49:51.079Z,78.04
2018-06-27T22:52:19.995Z,78.19
2018-06-27T22:54:48.880Z,77.84
2018-06-27T22:57:18.119Z,78.85
2018-06-27T22:59:46.906Z,79.05
2018-06-27T23:02:15.710Z,77.95
2018-06-27T23:04:44.490Z,77.77
2018-06-27T23:07:13.310Z,78.51
2018-06-27T23:09:42.139Z,78.54
2018-06-27T23:12:10.910Z,78.87
2018-06-27T23:14:39.826Z,80.26
2018-06-27T23:17:08.650Z,79.94
2018-06-27T23:19:37.859Z,80.07
2018-06-27T23:22:06.844Z,79.95
2018-06-27T23:24:35.780Z,79.90
2018-06-27T23:27:04.884Z,80.85
2018-06-27T23:29:33.790Z,79.91
2018-06-27T23:32:02.708Z,79.96
2018-06-27T23:34:31.599Z,79.88
2018-06-27T23:37:00.359Z,80.62
2018-06-27T23:39:29.146Z,80.96
2018-06-27T23:41:58.094Z,80.81
2018-06-27T23:44:26.983Z,81.33
2018-06-27T23:46:55.916Z,81.31
2018-06-27T23:49:24.793Z,81.70
2018-06-27T23:51:53.743Z,81.55
2018-06-27T23:54:22.644Z,81.07
2018-06-27T23:56:51.452Z,81.31
2018-06-27T23:59:20.365Z,81.46
